Navajo Dam, NM (87419)

7:38 AM MDT on September 28, 2016 (GMT -0600)
RAWS | | Change Station

Elev 7172 ft 36.98 °N, 107.63 °W | Updated 1 hour ago

Clear
Clear
49.0 °F
Feels Like 46 °F
N
6.0
Wind Variable Wind from NNE
Gusts 9.0 mph

Today
High -- | Low -- °F
--% Chance of Precip.
Yesterday
High -- | Low -- °F
Precip. -- in
Pressure 30.23 in
Visibility 10.0 miles
Clouds Clear
Windchill 46 °F
Dew Point 32.0 °F
Humidity 51%
Rainfall in
Snow Depth Not available.
7:03 AM 6:57 PM
Waning Crescent, 6% visible
METAR KDRO 281253Z AUTO 06004KT 10SM CLR 02/M01 A3034 RMK AO2 SLP236 T00221006
Pressure 30.23 in
Visibility 10.0 miles
Clouds Clear
Windchill 46 °F
Dew Point 32.0 °F
Humidity 51%
Rainfall in
Snow Depth Not available.
7:03 AM 6:57 PM
Waning Crescent, 6% visible
METAR KDRO 281253Z AUTO 06004KT 10SM CLR 02/M01 A3034 RMK AO2 SLP236 T00221006

10-Day Weather Forecast

Almanac

Astronomy

Sep. 28, 2016 Rise Set
Actual Time
Civil Twilight
Nautical Twilight
Astronomical Twilight
Moon
Length of Visible Light
Length of Day
Tomorrow will be .
, % of the Moon is Illuminated

Today's Extremes

State Highs State Lows

Community

WunderPhotos

Upload Photos

1,942,259 photos uploaded!

WunderBlog® & News

Nearby

Air Quality

  Air Quality AQ Index Pollutant
Not available.

Snow Depth

Station Depth Elevation

Earthquake Activity

City Distance Mag. Time & Date
Minimum magnitude displayed is 2.5.

Coastal Water Temperatures

Place Temperature

Stations

Nearby Weather Stations

Station Location Temp. Windchill Dew Point Humidity Wind Precip. Elev Updated Type
                   

Watches & Warnings

There are currently no watches in effect.